This is the latest recevied weather packets stored in our database for station/object KB0BS-13. If no packets are shown the sender has not sent any weather packets the latest 10 day(s).
| Time | Temp. | Humidity | Pressure | Rain* | Wind** | Luminosity | Snow |
|---|---|---|---|---|---|---|---|
| 1777792471 | -1.67° C | 94% | 1011.9 hPa | 0 mm | - | 0 W/m² | - |
| 1777792166 | -1.11° C | 90% | 1012 hPa | 0 mm | - | 0 W/m² | - |
| 1777791864 | -1.11° C | 90% | 1012 hPa | 0 mm | - | 0 W/m² | - |
| 1777791562 | -1.11° C | 92% | 1011.9 hPa | 0 mm | - | 0 W/m² | - |
| 1777791259 | -1.11° C | 90% | 1012.3 hPa | 0 mm | - | 0 W/m² | - |
| 1777790957 | -1.11° C | 88% | 1012.2 hPa | 0 mm | - | 0 W/m² | - |
| 1777790654 | -1.11° C | 87% | 1012.4 hPa | 0 mm | - | 0 W/m² | - |
| 1777790351 | 0° C | 84% | 1012.3 hPa | 0 mm | - | 0 W/m² | - |
| 1777790049 | 0.56° C | 84% | 1012.3 hPa | 0 mm | - | 0 W/m² | - |
| 1777789747 | 0.56° C | 83% | 1012.3 hPa | 0 mm | - | 0 W/m² | - |
| 1777789445 | 0.56° C | 84% | 1012.5 hPa | 0 mm | - | 0 W/m² | - |
| 1777789143 | 0.56° C | 84% | 1012.4 hPa | 0 mm | - | 0 W/m² | - |
| 1777788840 | 0.56° C | 84% | 1012.5 hPa | 0 mm | - | 0 W/m² | - |
| 1777788535 | 0° C | 86% | 1012.5 hPa | 0 mm | - | 0 W/m² | - |
| 1777788230 | 0° C | 87% | 1012.6 hPa | 0 mm | - | 0 W/m² | - |
| 1777787926 | -0.56° C | 90% | 1012.6 hPa | 0 mm | - | 0 W/m² | - |
| 1777787621 | 0° C | 88% | 1012.6 hPa | 0 mm | - | 0 W/m² | - |
| 1777787318 | 0° C | 87% | 1012.7 hPa | 0 mm | - | 0 W/m² | - |
| 1777787013 | -0.56° C | 88% | 1013 hPa | 0 mm | - | 0 W/m² | - |
| 1777786711 | -1.11° C | 92% | 1013 hPa | 0 mm | - | 0 W/m² | - |
| 1777786410 | -1.11° C | 95% | 1013.1 hPa | 0 mm | - | 0 W/m² | - |
| 1777786106 | -1.67° C | 96% | 1013.1 hPa | 0 mm | - | 0 W/m² | - |
| 1777785803 | -1.11° C | 95% | 1013.3 hPa | 0 mm | - | 0 W/m² | - |
| 1777785499 | -1.11° C | 95% | 1013.2 hPa | 0 mm | - | 0 W/m² | - |
| 1777785195 | -1.11° C | 92% | 1013.3 hPa | 0 mm | - | 0 W/m² | - |
* Rain latest hour (hover to see other rain measurements)
** Current wind speed in m/s (hover to see current wind gust speed)